createdAt,value
2023-04-05T00:01:07.580Z,95653.81
2023-04-05T00:03:34.819Z,95653.13
2023-04-05T00:06:02.907Z,95652.78
2023-04-05T00:08:29.522Z,95649.69
2023-04-05T00:10:56.136Z,95653.75
2023-04-05T00:13:23.128Z,95642.44
2023-04-05T00:15:49.695Z,95654.34
2023-04-05T00:18:22.202Z,95646.91
2023-04-05T00:20:50.050Z,95641.81
2023-04-05T00:23:17.733Z,95633.50
2023-04-05T00:25:45.110Z,95642.03
2023-04-05T00:28:12.179Z,95641.53
2023-04-05T00:30:39.786Z,95641.38
2023-04-05T00:33:06.652Z,95636.22
2023-04-05T00:35:33.285Z,95627.28
2023-04-05T00:37:59.936Z,95632.56
2023-04-05T00:40:26.632Z,95627.91
2023-04-05T00:42:53.151Z,95637.75
2023-04-05T00:45:19.741Z,95634.31
2023-04-05T00:47:46.589Z,95624.88
2023-04-05T00:50:13.441Z,95625.06
2023-04-05T00:52:43.444Z,95627.69
2023-04-05T00:55:11.125Z,95618.63
2023-04-05T00:57:39.135Z,95625.16
2023-04-05T01:00:11.720Z,95621.44
2023-04-05T01:02:48.331Z,95615.59
2023-04-05T01:05:39.776Z,95614.16
2023-04-05T01:08:22.407Z,95608.69
2023-04-05T01:10:57.054Z,95613.16
2023-04-05T01:13:25.721Z,95608.16
2023-04-05T01:15:52.412Z,95606.53
2023-04-05T01:18:19.338Z,95597.59
2023-04-05T01:20:53.115Z,95597.84
2023-04-05T01:23:23.004Z,95601.59
2023-04-05T01:25:52.879Z,95596.53
2023-04-05T01:28:42.531Z,95595.31
2023-04-05T01:31:27.050Z,95586.56
2023-04-05T01:34:11.310Z,95592.81
2023-04-05T01:36:45.310Z,95588.66
2023-04-05T01:39:16.722Z,95582.03
2023-04-05T01:41:43.289Z,95584.72
2023-04-05T01:44:09.841Z,95580.06
2023-04-05T01:46:36.821Z,95577.06
2023-04-05T01:49:03.890Z,95574.03
2023-04-05T01:51:32.197Z,95578.28
2023-04-05T01:53:59.946Z,95577.88
2023-04-05T01:56:27.308Z,95567.97
2023-04-05T01:58:53.893Z,95570.91
2023-04-05T02:01:20.565Z,95565.00
2023-04-05T02:03:47.214Z,95567.75
2023-04-05T02:06:13.817Z,95563.41
2023-04-05T02:08:40.329Z,95563.41
2023-04-05T02:11:06.941Z,95561.94
2023-04-05T02:13:33.518Z,95560.50
2023-04-05T02:16:00.145Z,95560.34
2023-04-05T02:18:31.320Z,95555.06
2023-04-05T02:21:02.517Z,95555.88
2023-04-05T02:23:30.804Z,95562.91
2023-04-05T02:25:58.476Z,95559.41
2023-04-05T02:28:25.014Z,95557.56
2023-04-05T02:30:54.192Z,95555.81
2023-04-05T02:33:22.746Z,95549.09
2023-04-05T02:35:51.595Z,95545.75
2023-04-05T02:38:18.211Z,95549.16
2023-04-05T02:40:49.360Z,95543.28
2023-04-05T02:43:16.518Z,95542.63
2023-04-05T02:45:45.527Z,95535.22
2023-04-05T02:48:13.590Z,95539.53
2023-04-05T02:50:40.594Z,95540.38
2023-04-05T02:53:07.324Z,95528.69
2023-04-05T02:55:34.034Z,95526.22
2023-04-05T02:58:01.843Z,95529.16
2023-04-05T03:00:34.988Z,95525.91
2023-04-05T03:03:02.612Z,95524.34
2023-04-05T03:05:29.965Z,95521.56
2023-04-05T03:07:59.348Z,95528.69
2023-04-05T03:10:32.676Z,95532.16
2023-04-05T03:13:03.817Z,95528.94
2023-04-05T03:15:32.769Z,95540.13
2023-04-05T03:18:03.564Z,95519.09
2023-04-05T03:20:30.396Z,95530.88
2023-04-05T03:23:00.177Z,95526.72
2023-04-05T03:25:30.623Z,95525.69
2023-04-05T03:27:57.932Z,95522.41
2023-04-05T03:30:29.339Z,95522.63
2023-04-05T03:33:03.026Z,95524.72
2023-04-05T03:35:47.912Z,95529.09
2023-04-05T03:38:15.770Z,95517.91
2023-04-05T03:41:17.956Z,95519.09
2023-04-05T03:43:44.648Z,95516.69
2023-04-05T03:46:12.001Z,95517.63
2023-04-05T03:48:38.575Z,95520.13
2023-04-05T03:51:06.162Z,95518.56
2023-04-05T03:53:32.710Z,95523.28
2023-04-05T03:55:59.870Z,95522.63
2023-04-05T03:58:48.842Z,95515.53
2023-04-05T04:01:18.464Z,95516.66
2023-04-05T04:03:45.109Z,95513.06
2023-04-05T04:06:11.800Z,95513.25
2023-04-05T04:08:39.366Z,95512.94
2023-04-05T04:11:06.454Z,95511.75
2023-04-05T04:13:38.559Z,95512.59
2023-04-05T04:16:17.985Z,95513.50
2023-04-05T04:19:01.016Z,95509.84
2023-04-05T04:21:50.960Z,95507.25
2023-04-05T04:24:36.047Z,95506.16
2023-04-05T04:27:11.089Z,95513.72
2023-04-05T04:30:01.848Z,95517.38
2023-04-05T04:32:50.301Z,95516.09
2023-04-05T04:35:29.828Z,95518.53
2023-04-05T04:38:05.789Z,95514.09
2023-04-05T04:40:50.345Z,95515.31
2023-04-05T04:43:33.797Z,95525.59
2023-04-05T04:46:30.562Z,95512.28
2023-04-05T04:49:05.939Z,95518.91
2023-04-05T04:51:33.259Z,95523.25
2023-04-05T04:53:59.909Z,95520.97
2023-04-05T04:56:27.051Z,95517.66
2023-04-05T04:58:57.682Z,95518.19
2023-04-05T05:01:25.038Z,95513.56
2023-04-05T05:03:52.418Z,95509.69
2023-04-05T05:06:34.936Z,95517.22
2023-04-05T05:09:01.551Z,95518.44
2023-04-05T05:11:29.945Z,95516.41
2023-04-05T05:13:57.243Z,95513.44
2023-04-05T05:16:26.671Z,95519.31
2023-04-05T05:18:53.546Z,95506.94
2023-04-05T05:21:22.006Z,95508.84
2023-04-05T05:23:55.236Z,95515.97
2023-04-05T05:26:21.815Z,95512.25
2023-04-05T05:28:49.865Z,95515.50
2023-04-05T05:31:17.848Z,95515.81
2023-04-05T05:33:50.525Z,95516.97
2023-04-05T05:36:17.073Z,95515.94
2023-04-05T05:38:43.660Z,95507.94
2023-04-05T05:41:10.357Z,95514.47
2023-04-05T05:43:36.914Z,95515.31
2023-04-05T05:46:03.670Z,95523.41
2023-04-05T05:48:30.411Z,95520.50
2023-04-05T05:50:57.253Z,95527.72
2023-04-05T05:53:24.022Z,95523.41
2023-04-05T05:55:50.594Z,95522.13
2023-04-05T05:58:17.128Z,95526.69
2023-04-05T06:00:44.141Z,95529.06
2023-04-05T06:03:11.022Z,95521.94
2023-04-05T06:05:37.651Z,95526.38
2023-04-05T06:08:04.652Z,95522.28
2023-04-05T06:10:31.265Z,95531.41
2023-04-05T06:12:57.798Z,95533.25
2023-04-05T06:15:24.433Z,95531.00
2023-04-05T06:17:51.145Z,95533.16
2023-04-05T06:20:17.908Z,95536.38
2023-04-05T06:22:44.503Z,95540.44
2023-04-05T06:25:12.933Z,95528.56
2023-04-05T06:27:39.568Z,95532.25
2023-04-05T06:30:06.919Z,95529.69
2023-04-05T06:32:33.505Z,95526.75
2023-04-05T06:35:01.669Z,95525.69
2023-04-05T06:37:28.199Z,95526.19
2023-04-05T06:39:54.763Z,95529.72
2023-04-05T06:42:21.294Z,95530.66
2023-04-05T06:44:55.143Z,95520.97
2023-04-05T06:47:21.755Z,95520.72
2023-04-05T06:49:48.323Z,95530.28
2023-04-05T06:52:14.919Z,95517.06
2023-04-05T06:54:41.433Z,95524.97
2023-04-05T06:57:08.038Z,95514.78
2023-04-05T06:59:34.652Z,95517.22
2023-04-05T07:02:01.473Z,95518.34
2023-04-05T07:04:32.605Z,95518.91
2023-04-05T07:07:02.112Z,95520.19
2023-04-05T07:09:30.743Z,95521.56
2023-04-05T07:11:57.280Z,95525.66
2023-04-05T07:14:23.897Z,95522.06
2023-04-05T07:16:52.384Z,95513.69
2023-04-05T07:19:18.898Z,95507.91
2023-04-05T07:21:45.615Z,95511.34
2023-04-05T07:24:12.179Z,95511.53
2023-04-05T07:26:38.793Z,95512.47
2023-04-05T07:29:06.290Z,95520.63
2023-04-05T07:31:32.804Z,95521.72
2023-04-05T07:34:01.176Z,95522.91
2023-04-05T07:36:30.732Z,95524.69
2023-04-05T07:38:58.051Z,95518.94
2023-04-05T07:41:31.692Z,95524.66
2023-04-05T07:43:58.973Z,95524.25
2023-04-05T07:46:27.197Z,95527.47
2023-04-05T07:48:54.338Z,95526.75
2023-04-05T07:51:20.902Z,95526.97
2023-04-05T07:53:48.127Z,95523.53
2023-04-05T07:56:15.217Z,95532.94
2023-04-05T07:58:42.125Z,95529.84
2023-04-05T08:01:11.910Z,95535.00
2023-04-05T08:03:39.763Z,95535.19
2023-04-05T08:06:12.104Z,95531.03
2023-04-05T08:08:39.160Z,95526.00
2023-04-05T08:11:05.742Z,95534.41
2023-04-05T08:13:34.026Z,95535.56
2023-04-05T08:16:02.162Z,95536.06
2023-04-05T08:18:29.080Z,95532.16
2023-04-05T08:20:56.681Z,95525.97
2023-04-05T08:23:23.301Z,95536.66
2023-04-05T08:25:50.235Z,95528.31
2023-04-05T08:28:17.587Z,95529.38
2023-04-05T08:30:45.179Z,95532.69
2023-04-05T08:33:12.183Z,95533.34
2023-04-05T08:35:39.425Z,95533.75
2023-04-05T08:38:09.210Z,95529.19
2023-04-05T08:40:44.234Z,95531.69
2023-04-05T08:43:34.002Z,95528.13
2023-04-05T08:46:01.932Z,95519.22
2023-04-05T08:48:32.291Z,95519.34
2023-04-05T08:50:58.840Z,95521.50
2023-04-05T08:53:25.492Z,95517.41
2023-04-05T08:56:00.290Z,95521.63
2023-04-05T08:58:28.307Z,95523.03
2023-04-05T09:00:57.314Z,95532.91
2023-04-05T09:03:28.832Z,95524.34
2023-04-05T09:05:58.823Z,95520.66
2023-04-05T09:08:25.520Z,95521.63
2023-04-05T09:10:52.610Z,95523.69
2023-04-05T09:13:19.677Z,95523.63
2023-04-05T09:15:46.834Z,95523.84
2023-04-05T09:18:23.675Z,95517.34
2023-04-05T09:21:01.718Z,95519.66
2023-04-05T09:23:28.803Z,95528.66
2023-04-05T09:25:55.429Z,95520.91
2023-04-05T09:28:21.969Z,95516.00
2023-04-05T09:30:48.475Z,95512.75
2023-04-05T09:33:18.950Z,95520.69
2023-04-05T09:35:52.237Z,95517.91
2023-04-05T09:38:20.500Z,95521.13
2023-04-05T09:40:48.495Z,95515.75
2023-04-05T09:43:42.404Z,95521.41
2023-04-05T09:46:29.617Z,95514.97
2023-04-05T09:48:57.007Z,95510.72
2023-04-05T09:51:23.637Z,95510.44
2023-04-05T09:54:03.920Z,95506.75
2023-04-05T09:56:36.497Z,95514.63
2023-04-05T09:59:07.474Z,95518.09
2023-04-05T10:01:34.312Z,95512.06
2023-04-05T10:04:01.268Z,95511.56
2023-04-05T10:06:41.646Z,95511.16
2023-04-05T10:09:10.034Z,95504.34
2023-04-05T10:11:38.423Z,95503.56
2023-04-05T10:14:09.089Z,95495.97
2023-04-05T10:16:56.403Z,95494.69
2023-04-05T10:19:46.524Z,95490.56
2023-04-05T10:22:17.649Z,95502.75
2023-04-05T10:24:54.248Z,95488.69
2023-04-05T10:27:32.881Z,95493.19
2023-04-05T10:30:09.776Z,95484.00
2023-04-05T10:33:04.769Z,95485.97
2023-04-05T10:35:41.097Z,95492.00
2023-04-05T10:38:28.035Z,95492.72
2023-04-05T10:41:06.654Z,95492.22
2023-04-05T10:43:35.359Z,95488.00
2023-04-05T10:46:03.450Z,95482.41
2023-04-05T10:49:17.882Z,95484.53
2023-04-05T10:51:45.184Z,95480.63
2023-04-05T10:54:12.041Z,95470.69
2023-04-05T10:56:39.989Z,95475.31
2023-04-05T10:59:08.349Z,95469.94
2023-04-05T11:01:35.801Z,95472.53
2023-04-05T11:04:16.118Z,95464.97
2023-04-05T11:06:47.652Z,95461.81
2023-04-05T11:09:20.906Z,95465.03
2023-04-05T11:11:49.409Z,95454.81
2023-04-05T11:14:18.512Z,95449.00
2023-04-05T11:16:48.130Z,95443.56
2023-04-05T11:19:17.760Z,95451.63
2023-04-05T11:21:44.505Z,95452.63
2023-04-05T11:24:15.333Z,95453.84
2023-04-05T11:26:41.953Z,95456.81
2023-04-05T11:29:08.540Z,95453.13
2023-04-05T11:31:35.354Z,95456.13
2023-04-05T11:34:12.181Z,95454.03
2023-04-05T11:36:45.484Z,95456.47
2023-04-05T11:39:17.991Z,95454.38
2023-04-05T11:41:47.925Z,95436.59
2023-04-05T11:44:16.514Z,95435.06
2023-04-05T11:46:43.875Z,95431.94
2023-04-05T11:49:10.595Z,95432.28
2023-04-05T11:51:37.453Z,95417.38
2023-04-05T11:54:04.041Z,95425.03
2023-04-05T11:56:30.667Z,95420.56
2023-04-05T11:59:00.550Z,95425.25
2023-04-05T12:01:27.245Z,95432.22
2023-04-05T12:03:55.663Z,95422.06
2023-04-05T12:06:23.870Z,95422.00
2023-04-05T12:08:51.074Z,95421.50
2023-04-05T12:11:25.469Z,95413.25
2023-04-05T12:13:58.524Z,95416.09
2023-04-05T12:16:25.557Z,95416.50
2023-04-05T12:18:59.571Z,95413.59
2023-04-05T12:21:27.376Z,95407.66
2023-04-05T12:23:54.470Z,95411.41
2023-04-05T12:26:22.194Z,95407.59
2023-04-05T12:28:57.348Z,95412.22
2023-04-05T12:31:46.931Z,95412.75
2023-04-05T12:34:14.789Z,95407.16
2023-04-05T12:36:46.764Z,95405.16
2023-04-05T12:39:16.376Z,95406.09
2023-04-05T12:41:43.166Z,95414.47
2023-04-05T12:44:15.801Z,95407.38
2023-04-05T12:46:44.662Z,95409.09
2023-04-05T12:49:12.693Z,95404.72
2023-04-05T12:51:43.979Z,95413.41
2023-04-05T12:54:24.467Z,95402.06
2023-04-05T12:56:52.774Z,95393.53
2023-04-05T12:59:19.392Z,95396.44
2023-04-05T13:01:46.323Z,95395.59
2023-04-05T13:04:16.424Z,95394.16
2023-04-05T13:06:44.864Z,95388.41
2023-04-05T13:09:11.433Z,95387.88
2023-04-05T13:11:38.035Z,95379.22
2023-04-05T13:14:04.555Z,95383.25
2023-04-05T13:16:31.174Z,95379.38
2023-04-05T13:18:57.825Z,95373.09
2023-04-05T13:21:24.351Z,95370.06
2023-04-05T13:23:50.950Z,95369.22
2023-04-05T13:26:17.578Z,95367.28
2023-04-05T13:28:44.094Z,95371.28
2023-04-05T13:31:11.318Z,95369.72
2023-04-05T13:33:39.094Z,95357.50
2023-04-05T13:36:06.086Z,95358.28
2023-04-05T13:38:32.707Z,95357.53
2023-04-05T13:40:59.265Z,95360.28
2023-04-05T13:43:27.885Z,95358.56
2023-04-05T13:45:54.551Z,95370.78
2023-04-05T13:48:21.099Z,95366.72
2023-04-05T13:50:47.700Z,95384.22
2023-04-05T13:53:14.255Z,95379.84
2023-04-05T13:55:40.979Z,95373.03
2023-04-05T13:58:07.602Z,95365.06
2023-04-05T14:00:34.127Z,95361.19
2023-04-05T14:03:00.885Z,95364.47
2023-04-05T14:05:27.650Z,95352.13
2023-04-05T14:07:54.218Z,95353.16
2023-04-05T14:10:21.584Z,95346.03
2023-04-05T14:12:48.240Z,95345.69
2023-04-05T14:15:14.936Z,95349.34
2023-04-05T14:17:41.622Z,95348.28
2023-04-05T14:20:08.462Z,95353.94
2023-04-05T14:22:35.323Z,95341.69
2023-04-05T14:25:02.202Z,95347.28
2023-04-05T14:27:28.880Z,95354.16
2023-04-05T14:29:58.414Z,95332.53
2023-04-05T14:32:25.514Z,95342.19
2023-04-05T14:34:52.374Z,95337.28
2023-04-05T14:37:19.028Z,95345.72
2023-04-05T14:39:47.020Z,95343.13
2023-04-05T14:42:13.652Z,95345.78
2023-04-05T14:44:40.385Z,95335.84
2023-04-05T14:47:07.073Z,95340.22
2023-04-05T14:49:33.623Z,95338.88
2023-04-05T14:52:00.315Z,95329.94
2023-04-05T14:54:26.929Z,95331.41
2023-04-05T14:56:53.542Z,95333.84
2023-04-05T14:59:20.234Z,95324.25
2023-04-05T15:01:47.553Z,95334.22
2023-04-05T15:04:14.285Z,95325.50
2023-04-05T15:06:40.908Z,95332.44
2023-04-05T15:09:07.549Z,95328.75
2023-04-05T15:11:39.032Z,95323.50
2023-04-05T15:14:08.543Z,95334.47
2023-04-05T15:16:38.061Z,95328.75
2023-04-05T15:19:04.686Z,95333.13
2023-04-05T15:21:31.323Z,95331.63
2023-04-05T15:23:57.871Z,95330.72
2023-04-05T15:26:24.454Z,95336.13
2023-04-05T15:28:51.110Z,95323.78
2023-04-05T15:31:17.695Z,95340.91
2023-04-05T15:33:44.371Z,95340.00
2023-04-05T15:36:11.016Z,95343.06
2023-04-05T15:38:37.615Z,95342.91
2023-04-05T15:41:04.261Z,95350.56
2023-04-05T15:43:32.240Z,95350.78
2023-04-05T15:45:58.830Z,95347.72
2023-04-05T15:48:25.500Z,95350.41
2023-04-05T15:50:52.406Z,95352.31
2023-04-05T15:53:18.994Z,95342.72
2023-04-05T15:55:45.551Z,95356.44
2023-04-05T15:58:12.102Z,95359.47
2023-04-05T16:00:39.189Z,95363.19
2023-04-05T16:03:05.802Z,95353.66
2023-04-05T16:05:32.458Z,95355.16
2023-04-05T16:07:59.452Z,95352.88
2023-04-05T16:10:26.011Z,95353.84
2023-04-05T16:12:54.217Z,95357.34
2023-04-05T16:15:20.911Z,95356.63
2023-04-05T16:17:47.465Z,95364.66
2023-04-05T16:20:14.097Z,95369.25
2023-04-05T16:22:41.450Z,95352.41
2023-04-05T16:25:08.094Z,95360.56
2023-04-05T16:27:35.957Z,95364.16
2023-04-05T16:30:02.627Z,95363.66
2023-04-05T16:32:29.243Z,95366.75
2023-04-05T16:34:56.171Z,95362.28
2023-04-05T16:37:22.731Z,95359.13
2023-04-05T16:39:49.325Z,95361.19
2023-04-05T16:42:16.094Z,95353.00
2023-04-05T16:44:42.714Z,95356.28
2023-04-05T16:47:09.293Z,95359.69
2023-04-05T16:49:36.692Z,95361.00
2023-04-05T16:52:03.502Z,95357.47
2023-04-05T16:54:31.426Z,95362.63
2023-04-05T16:56:58.571Z,95366.03
2023-04-05T16:59:25.299Z,95364.66
2023-04-05T17:01:52.157Z,95365.13
2023-04-05T17:04:18.746Z,95370.34
2023-04-05T17:06:45.312Z,95372.63
2023-04-05T17:09:11.929Z,95367.41
2023-04-05T17:11:38.495Z,95373.00
2023-04-05T17:14:06.585Z,95365.59
2023-04-05T17:16:33.199Z,95373.22
2023-04-05T17:19:00.588Z,95370.72
2023-04-05T17:21:27.215Z,95372.75
2023-04-05T17:23:53.883Z,95368.88
2023-04-05T17:26:23.032Z,95367.03
2023-04-05T17:28:49.586Z,95366.50
2023-04-05T17:31:16.353Z,95376.47
2023-04-05T17:33:42.966Z,95375.28
2023-04-05T17:36:09.583Z,95369.81
2023-04-05T17:38:36.204Z,95370.88
2023-04-05T17:41:03.233Z,95377.00
2023-04-05T17:43:29.850Z,95378.06
2023-04-05T17:45:56.434Z,95379.28
2023-04-05T17:48:23.077Z,95385.13
2023-04-05T17:50:49.654Z,95388.28
2023-04-05T17:53:16.592Z,95385.13
2023-04-05T17:55:43.602Z,95384.31
2023-04-05T17:58:10.359Z,95394.69
2023-04-05T18:00:36.992Z,95396.00
2023-04-05T18:03:07.319Z,95392.03
2023-04-05T18:05:34.773Z,95402.41
2023-04-05T18:08:01.389Z,95404.63
2023-04-05T18:10:28.309Z,95412.47
2023-04-05T18:12:54.976Z,95404.78
2023-04-05T18:15:21.660Z,95400.41
2023-04-05T18:17:49.653Z,95406.06
2023-04-05T18:20:16.419Z,95412.84
2023-04-05T18:22:43.002Z,95409.97
2023-04-05T18:25:11.684Z,95414.25
2023-04-05T18:27:39.115Z,95420.47
2023-04-05T18:30:06.579Z,95426.28
2023-04-05T18:32:33.226Z,95425.56
2023-04-05T18:34:59.788Z,95433.41
2023-04-05T18:37:26.418Z,95437.53
2023-04-05T18:39:52.973Z,95438.22
2023-04-05T18:42:19.884Z,95441.16
2023-04-05T18:44:46.803Z,95443.19
2023-04-05T18:47:13.378Z,95447.88
2023-04-05T18:49:39.977Z,95453.13
2023-04-05T18:52:06.539Z,95445.81
2023-04-05T18:54:33.095Z,95451.88
2023-04-05T18:56:59.684Z,95457.75
2023-04-05T18:59:26.403Z,95453.78
2023-04-05T19:01:53.153Z,95461.63
2023-04-05T19:04:20.047Z,95457.91
2023-04-05T19:06:46.643Z,95457.75
2023-04-05T19:09:13.297Z,95464.91
2023-04-05T19:11:39.883Z,95462.88
2023-04-05T19:14:06.465Z,95466.69
2023-04-05T19:16:33.200Z,95465.44
2023-04-05T19:18:59.801Z,95468.91
2023-04-05T19:21:26.406Z,95470.09
2023-04-05T19:23:53.021Z,95464.09
2023-04-05T19:26:21.255Z,95474.38
2023-04-05T19:28:49.319Z,95469.28
2023-04-05T19:31:16.259Z,95469.94
2023-04-05T19:33:42.886Z,95471.31
2023-04-05T19:36:09.648Z,95467.34
2023-04-05T19:38:36.408Z,95477.69
2023-04-05T19:41:02.978Z,95470.78
2023-04-05T19:43:31.610Z,95476.13
2023-04-05T19:46:00.352Z,95473.09
2023-04-05T19:48:40.532Z,95478.47
2023-04-05T19:51:09.629Z,95484.47
2023-04-05T19:53:48.255Z,95484.22
2023-04-05T19:56:26.170Z,95479.41
2023-04-05T19:58:59.974Z,95477.69
2023-04-05T20:01:36.335Z,95478.50
2023-04-05T20:04:17.180Z,95473.28
2023-04-05T20:06:51.290Z,95474.53
2023-04-05T20:09:18.212Z,95480.47
2023-04-05T20:11:50.597Z,95475.25
2023-04-05T20:14:17.685Z,95476.59
2023-04-05T20:16:44.318Z,95473.53
2023-04-05T20:19:11.330Z,95474.88
2023-04-05T20:21:38.512Z,95476.41
2023-04-05T20:24:08.738Z,95479.41
2023-04-05T20:26:35.431Z,95479.47
2023-04-05T20:29:04.267Z,95477.09
2023-04-05T20:31:35.154Z,95476.41
2023-04-05T20:34:12.256Z,95480.94
2023-04-05T20:36:46.878Z,95478.97
2023-04-05T20:39:13.502Z,95478.63
2023-04-05T20:41:40.379Z,95473.31
2023-04-05T20:44:07.010Z,95472.84
2023-04-05T20:46:33.847Z,95479.06
2023-04-05T20:49:00.632Z,95476.59
2023-04-05T20:51:27.210Z,95476.00
2023-04-05T20:53:53.753Z,95474.91
2023-04-05T20:56:20.390Z,95478.81
2023-04-05T20:58:46.930Z,95471.09
2023-04-05T21:01:13.542Z,95470.94
2023-04-05T21:03:41.619Z,95466.69
2023-04-05T21:06:09.596Z,95474.72
2023-04-05T21:08:37.837Z,95478.63
2023-04-05T21:11:05.387Z,95474.25
2023-04-05T21:13:32.483Z,95471.19
2023-04-05T21:15:59.312Z,95470.81
2023-04-05T21:18:26.074Z,95474.63
2023-04-05T21:20:54.032Z,95473.47
2023-04-05T21:23:22.843Z,95467.81
2023-04-05T21:25:50.024Z,95477.75
2023-04-05T21:28:16.723Z,95475.94
2023-04-05T21:30:43.741Z,95470.53
2023-04-05T21:33:11.332Z,95475.97
2023-04-05T21:35:38.254Z,95481.75
2023-04-05T21:38:05.527Z,95483.88
2023-04-05T21:40:32.220Z,95475.63
2023-04-05T21:42:59.081Z,95473.84
2023-04-05T21:45:26.200Z,95477.38
2023-04-05T21:47:53.362Z,95474.44
2023-04-05T21:50:20.404Z,95471.72
2023-04-05T21:52:47.115Z,95474.78
2023-04-05T21:55:13.829Z,95476.91
2023-04-05T21:57:40.477Z,95475.84
2023-04-05T22:00:10.980Z,95484.38
2023-04-05T22:02:40.762Z,95481.66
2023-04-05T22:05:08.109Z,95481.78
2023-04-05T22:07:35.716Z,95480.13
2023-04-05T22:10:02.728Z,95480.72
2023-04-05T22:12:29.581Z,95478.34
2023-04-05T22:14:56.410Z,95473.97
2023-04-05T22:17:23.081Z,95480.56
2023-04-05T22:19:49.639Z,95472.09
2023-04-05T22:22:17.193Z,95478.34
2023-04-05T22:24:43.879Z,95481.16
2023-04-05T22:27:11.860Z,95477.97
2023-04-05T22:29:39.028Z,95484.13
2023-04-05T22:32:05.839Z,95476.94
2023-04-05T22:34:32.466Z,95476.56
2023-04-05T22:36:59.913Z,95475.28
2023-04-05T22:39:27.905Z,95478.00
2023-04-05T22:41:54.844Z,95483.41
2023-04-05T22:44:21.862Z,95480.69
2023-04-05T22:46:48.440Z,95483.28
2023-04-05T22:49:14.978Z,95470.19
2023-04-05T22:51:41.549Z,95475.38
2023-04-05T22:54:08.140Z,95475.38
2023-04-05T22:56:34.726Z,95476.78
2023-04-05T22:59:01.343Z,95476.78
2023-04-05T23:01:27.986Z,95468.66
2023-04-05T23:03:54.567Z,95469.47
2023-04-05T23:06:21.324Z,95468.28
2023-04-05T23:08:47.932Z,95464.06
2023-04-05T23:11:14.499Z,95476.53
2023-04-05T23:13:41.247Z,95467.34
2023-04-05T23:16:07.916Z,95462.50
2023-04-05T23:18:34.621Z,95466.88
2023-04-05T23:21:01.569Z,95458.72
2023-04-05T23:23:28.111Z,95459.53
2023-04-05T23:25:54.687Z,95468.53
2023-04-05T23:28:21.233Z,95471.34
2023-04-05T23:30:49.148Z,95466.16
2023-04-05T23:33:16.180Z,95472.41
2023-04-05T23:35:42.889Z,95464.81
2023-04-05T23:38:09.462Z,95471.19
2023-04-05T23:40:36.217Z,95471.78
2023-04-05T23:43:02.824Z,95476.72
2023-04-05T23:45:29.480Z,95468.34
2023-04-05T23:47:56.191Z,95465.88
2023-04-05T23:50:22.772Z,95467.88
2023-04-05T23:52:49.414Z,95471.63
2023-04-05T23:55:16.312Z,95466.09
2023-04-05T23:57:42.928Z,95460.41
